Latest Weather Observations for PORTABLE RFSNSW09

IDN60801

Issued at 10:12 pm EST Tuesday 4 August 2020 (issued every 10 minutes, with the page automatically refreshed every 10 minutes)

About weather observations | Map of weather stations | Latest weather observations for NSW | Other Formats
Station Details ID: 250063 Name: PORTABLE RFSNSW09 Lat: -31.81 Lon: 151.59 Height: 953.0 m

Portable automatic weather stations (PAWS) are operated by other organisations, such as Fire and Emergency Services, and are included here by agreement. Portable stations may be deployed to a location for a short period and their location may be subject to change without notice. Wind observations from these stations are provided from heights of either three (3) or ten (10) metres above ground level (AGL).

Data from the previous 72 hours. | See also: Recent months for locations in New South Wales
Date/Time
EST
Temp
°C
App
Temp
°C
Dew
Point
°C
Rel
Hum
%
Delta-T
°C
Wind Press
QNH
hPa
Press
MSL
hPa
Rain since
9am
mm
Dir  Spd
km/h
Gust
km/h
Spd
kts
Gust
kts
04/10:00pm 9.5 5.8 -0.1 51 4.1 WNW 9 11 5 6 - - 0.0
04/09:50pm 9.6 5.9 -0.2 50 4.1 W 9 11 5 6 - - 0.0
04/09:40pm 9.8 6.1 -0.1 50 4.2 W 9 13 5 7 - - 0.0
04/09:30pm 9.9 6.1 -0.4 48 4.4 W 9 11 5 6 - - 0.0
04/09:20pm 10.1 6.0 -0.4 48 4.4 W 11 15 6 8 - - 0.0
04/09:10pm 10.1 6.0 -0.4 48 4.4 W 11 13 6 7 - - 0.0
04/09:00pm 10.2 6.4 -0.4 47 4.5 W 9 13 5 7 - - 0.0
04/08:50pm 10.1 6.0 -0.3 48 4.4 W 11 15 6 8 - - 0.0
04/08:40pm 10.3 6.2 -0.3 48 4.5 W 11 15 6 8 - - 0.0
04/08:30pm 10.4 5.9 -0.1 48 4.5 W 13 17 7 9 - - 0.0
04/08:20pm 10.3 5.9 0.3 50 4.3 W 13 17 7 9 - - 0.0
04/08:10pm 10.3 5.9 0.6 51 4.2 WSW 13 15 7 8 - - 0.0
04/08:00pm 10.4 6.4 0.8 51 4.2 W 11 15 6 8 - - 0.0
04/07:50pm 10.5 6.2 1.3 53 4.1 W 13 15 7 8 - - 0.0
04/07:40pm 10.6 6.3 1.3 52 4.1 W 13 13 7 7 - - 0.0
04/07:30pm 10.5 7.1 1.9 55 3.8 W 9 11 5 6 - - 0.0
04/07:20pm 10.7 6.9 1.9 54 3.9 WNW 11 17 6 9 - - 0.0
04/07:10pm 10.7 7.4 2.3 56 3.8 W 9 13 5 7 - - 0.0
04/07:00pm 10.8 7.1 2.5 56 3.8 W 11 13 6 7 - - 0.0
04/06:50pm 10.9 7.2 2.4 55 3.9 WNW 11 15 6 8 - - 0.0
04/06:40pm 10.9 6.8 2.5 56 3.8 WNW 13 17 7 9 - - 0.0
04/06:30pm 10.8 7.5 2.5 56 3.8 W 9 11 5 6 - - 0.0
04/06:20pm 10.9 7.6 2.6 56 3.8 WNW 9 11 5 6 - - 0.0
04/06:10pm 11.0 7.3 2.6 56 3.8 WNW 11 15 6 8 - - 0.0
04/06:00pm 11.1 7.4 2.6 56 3.9 WNW 11 13 6 7 - - 0.0
04/05:50pm 11.2 7.5 2.5 55 4.0 W 11 15 6 8 - - 0.0
04/05:40pm 11.2 7.5 2.3 54 4.0 W 11 17 6 9 - - 0.0
04/05:30pm 11.3 7.6 2.5 54 4.0 WNW 11 13 6 7 - - 0.0
04/05:20pm 11.5 7.4 2.3 53 4.2 WNW 13 15 7 8 - - 0.0
04/05:10pm 11.8 7.7 2.3 52 4.3 WNW 13 20 7 11 - - 0.0
04/05:00pm 12.3 8.2 2.2 50 4.6 WNW 13 19 7 10 - - 0.0
04/04:50pm 12.9 8.4 1.9 47 5.0 WNW 15 20 8 11 - - 0.0
04/04:40pm 13.2 8.2 1.5 45 5.3 WNW 17 20 9 11 - - 0.0
04/04:30pm 13.2 7.6 1.3 44 5.4 WNW 20 26 11 14 - - 0.0
04/04:20pm 12.9 7.3 1.3 45 5.2 W 20 26 11 14 - - 0.0
04/04:10pm 12.8 7.2 0.9 44 5.3 WNW 20 28 11 15 - - 0.0
04/04:00pm 12.9 7.4 0.8 43 5.4 W 19 28 10 15 - - 0.0
04/03:50pm 13.4 7.0 0.9 42 5.6 W 24 26 13 14 - - 0.0
04/03:40pm 14.2 8.9 1.6 42 5.8 W 19 24 10 13 - - 0.0
04/03:30pm 14.7 9.2 0.4 37 6.4 WNW 19 26 10 14 - - 0.0
04/03:20pm 14.8 9.3 0.6 38 6.4 WNW 19 26 10 14 - - 0.0
04/03:10pm 14.5 8.0 0.6 38 6.3 WNW 24 30 13 16 - - 0.0
04/03:00pm 14.6 8.9 0.6 38 6.3 WNW 20 26 11 14 - - 0.0
04/02:50pm 14.7 8.5 -0.3 36 6.6 WNW 22 32 12 17 - - 0.0
04/02:40pm 14.7 8.5 0.0 36 6.5 WNW 22 28 12 15 - - 0.0
04/02:30pm 14.8 8.2 -0.2 36 6.7 WNW 24 30 13 16 - - 0.0
04/02:20pm 15.3 10.5 0.2 35 6.8 W 15 20 8 11 - - 0.0
04/02:10pm 15.1 9.6 0.6 37 6.6 W 19 24 10 13 - - 0.0
04/02:00pm 15.1 9.5 -0.2 35 6.8 W 19 24 10 13 - - 0.0
04/01:50pm 14.8 8.7 0.4 37 6.5 W 22 32 12 17 - - 0.0
04/01:40pm 14.7 8.5 0.0 36 6.5 W 22 30 12 16 - - 0.0
04/01:30pm 14.7 10.3 0.2 37 6.5 W 13 28 7 15 - - 0.0
04/01:20pm 15.5 10.2 -0.4 33 7.1 W 17 19 9 10 - - 0.0
04/01:10pm 15.1 9.4 0.5 37 6.6 WNW 20 26 11 14 - - 0.0
04/01:00pm 15.2 9.6 1.5 39 6.3 WNW 20 30 11 16 - - 0.0
04/12:50pm 14.8 7.9 0.0 36 6.6 WNW 26 33 14 18 - - 0.0
04/12:40pm 15.3 9.9 1.1 38 6.5 WNW 19 30 10 16 - - 0.0
04/12:30pm 15.3 9.8 1.6 39 6.3 WNW 20 28 11 15 - - 0.0
04/12:20pm 15.4 9.9 0.5 36 6.7 WNW 19 22 10 12 - - 0.0
04/12:10pm 15.0 9.5 0.6 37 6.5 W 19 22 10 12 - - 0.0
04/12:00pm 14.3 7.1 0.8 39 6.1 W 28 33 15 18 - - 0.0
04/11:50am 14.3 7.1 0.5 39 6.2 WNW 28 33 15 18 - - 0.0
04/11:40am 14.7 8.2 0.2 37 6.5 WNW 24 37 13 20 - - 0.0
04/11:30am 14.5 8.1 0.8 39 6.2 WNW 24 28 13 15 - - 0.0
04/11:20am 14.3 7.3 -0.4 36 6.5 W 26 32 14 17 - - 0.0
04/11:10am 14.5 8.4 0.6 38 6.3 W 22 28 12 15 - - 0.0
04/11:00am 14.2 8.6 1.5 42 5.8 WNW 20 30 11 16 - - 0.0
04/10:50am 13.8 7.5 1.6 43 5.6 WNW 24 28 13 15 - - 0.0
04/10:40am 13.6 6.8 0.6 41 5.8 WNW 26 32 14 17 - - 0.0
04/10:30am 13.6 7.7 1.9 45 5.4 WNW 22 32 12 17 - - 0.0
04/10:20am 13.8 8.6 2.3 45 5.3 WNW 19 24 10 13 - - 0.0
04/10:10am 14.0 9.5 2.2 45 5.5 WNW 15 19 8 10 - - 0.0
04/10:00am 13.5 9.2 3.4 50 4.8 WNW 15 24 8 13 - - 0.0
04/09:50am 13.1 7.7 2.3 48 5.0 WNW 20 28 11 15 - - 0.0
04/09:40am 12.6 6.4 2.3 49 4.7 WNW 24 28 13 15 - - 0.0
04/09:30am 12.5 7.0 1.8 48 4.9 WNW 20 28 11 15 - - 0.0
04/09:20am 12.2 6.7 1.9 49 4.7 WNW 20 22 11 12 - - 0.0
04/09:10am 11.4 6.5 1.9 52 4.3 WNW 17 20 9 11 - - 0.0
04/09:00am 11.8 6.4 2.3 52 4.3 WNW 20 26 11 14 - - 0.0
04/08:50am 11.8 6.3 2.1 51 4.4 WNW 20 30 11 16 - - 0.0
04/08:40am 11.7 5.8 1.4 49 4.6 WNW 22 28 12 15 - - 0.0
04/08:30am 11.5 5.9 1.4 50 4.5 W 20 26 11 14 - - 0.0
04/08:20am 11.3 5.7 1.3 50 4.4 WNW 20 24 11 13 - - 0.0
04/08:10am 11.1 5.1 1.0 50 4.5 WNW 22 26 12 14 - - 0.0
04/08:00am 10.9 4.5 1.1 51 4.3 WNW 24 28 13 15 - - 0.0
04/07:50am 10.6 4.6 1.0 51 4.2 WNW 22 26 12 14 - - 0.0
04/07:40am 10.5 3.3 0.9 51 4.2 WNW 28 32 15 17 - - 0.0
04/07:30am 10.2 3.7 0.5 51 4.2 W 24 32 13 17 - - 0.0
04/07:20am 9.7 3.6 0.6 53 3.9 W 22 28 12 15 - - 0.0
04/07:10am 9.4 3.3 0.4 53 3.9 W 22 28 12 15 - - 0.0
04/07:00am 9.0 3.8 0.3 54 3.7 W 17 22 9 12 - - 0.0
04/06:50am 9.1 4.0 0.5 55 3.7 W 17 20 9 11 - - 0.0
04/06:40am 9.0 3.5 0.3 54 3.7 W 19 20 10 11 - - 0.0
04/06:30am 8.9 3.7 0.4 55 3.6 W 17 19 9 10 - - 0.0
04/06:20am 8.7 3.6 0.5 56 3.5 W 17 22 9 12 - - 0.0
04/06:10am 8.6 3.4 0.4 56 3.5 W 17 20 9 11 - - 0.0
04/06:00am 8.7 3.2 0.6 57 3.5 W 19 22 10 12 - - 0.0
04/05:50am 8.6 3.1 0.5 57 3.4 W 19 20 10 11 - - 0.0
04/05:40am 8.6 2.9 0.6 57 3.4 W 20 26 11 14 - - 0.0
04/05:30am 8.6 2.9 0.5 57 3.4 W 20 26 11 14 - - 0.0
04/05:20am 8.7 3.0 0.3 55 3.6 W 20 24 11 13 - - 0.0
04/05:10am 8.8 2.7 0.3 55 3.6 W 22 24 12 13 - - 0.0
04/05:00am 8.9 3.4 0.3 55 3.7 W 19 22 10 12 - - 0.0
04/04:50am 9.0 3.3 0.3 54 3.7 W 20 24 11 13 - - 0.0
04/04:40am 9.1 3.3 0.1 53 3.8 W 20 26 11 14 - - 0.0
04/04:30am 9.0 3.2 0.0 53 3.8 W 20 24 11 13 - - 0.0
04/04:20am 8.9 3.3 -0.2 53 3.8 W 19 24 10 13 - - 0.0
04/04:00am 8.7 4.2 -0.3 53 3.8 W 13 17 7 9 - - 0.0
04/03:50am 8.7 3.4 -0.4 53 3.8 W 17 20 9 11 - - 0.0
04/03:40am 8.7 3.8 -0.4 53 3.8 WNW 15 19 8 10 - - 0.0
04/03:30am 8.7 3.8 -0.7 51 3.9 W 15 19 8 10 - - 0.0
04/03:20am 8.6 3.7 -0.8 51 3.9 W 15 17 8 9 - - 0.0
04/03:10am 8.6 3.6 -0.9 51 3.9 W 15 17 8 9 - - 0.0
04/03:00am 8.5 3.6 -0.8 52 3.8 W 15 20 8 11 - - 0.0
04/02:50am 8.5 3.5 -0.9 51 3.9 W 15 19 8 10 - - 0.0
04/02:40am 8.5 3.2 -0.9 51 3.9 W 17 19 9 10 - - 0.0
04/02:30am 8.6 3.7 -0.8 51 3.9 W 15 17 8 9 - - 0.0
04/02:20am 8.5 3.6 -0.7 52 3.8 W 15 20 8 11 - - 0.0
04/02:10am 8.7 3.4 -0.7 51 3.9 W 17 22 9 12 - - 0.0
04/02:00am 8.8 2.9 -0.6 51 3.9 W 20 26 11 14 - - 0.0
04/01:50am 8.8 2.9 -0.6 51 3.9 W 20 24 11 13 - - 0.0
04/01:40am 8.9 2.7 -0.5 51 3.9 W 22 28 12 15 - - 0.0
04/01:30am 9.0 2.8 -0.5 51 4.0 W 22 28 12 15 - - 0.0
04/01:20am 8.9 3.1 -0.4 52 3.9 W 20 22 11 12 - - 0.0
04/01:10am 8.9 3.1 -0.3 52 3.9 W 20 24 11 13 - - 0.0
04/01:00am 9.0 3.2 -0.3 52 3.9 W 20 26 11 14 - - 0.0
04/12:50am 9.2 3.0 -0.3 51 4.0 W 22 24 12 13 - - 0.0
04/12:40am 9.2 3.4 -0.2 52 4.0 W 20 24 11 13 - - 0.0
04/12:30am 9.3 3.5 -0.2 51 4.0 W 20 26 11 14 - - 0.0
04/12:20am 9.3 3.1 -0.3 51 4.0 W 22 24 12 13 - - 0.0
04/12:10am 9.3 3.1 -0.1 52 4.0 W 22 26 12 14 - - 0.0
04/12:00am 9.3 3.1 -0.2 51 4.0 W 22 26 12 14 - - 0.0
 
Date/Time
EST
Temp
°C
App
Temp
°C
Dew
Point
°C
Rel
Hum
%
Delta-T
°C
Wind Press
QNH
hPa
Press
MSL
hPa
Rain since
9am
mm
Dir  Spd
km/h
Gust
km/h
Spd
kts
Gust
kts
03/11:50pm 9.3 2.7 -0.2 51 4.0 W 24 26 13 14 - - 0.0
03/11:40pm 9.4 2.8 -0.1 51 4.0 WSW 24 26 13 14 - - 0.0
03/11:30pm 9.4 3.2 -0.2 51 4.1 WSW 22 24 12 13 - - 0.0
03/11:20pm 9.3 3.5 -0.2 51 4.0 W 20 24 11 13 - - 0.0
03/11:10pm 9.4 3.6 -0.2 51 4.1 WSW 20 24 11 13 - - 0.0
03/11:00pm 9.3 3.4 -0.5 50 4.1 WSW 20 24 11 13 - - 0.0
03/10:50pm 9.3 3.7 -0.1 52 4.0 W 19 24 10 13 - - 0.0
03/10:40pm 9.2 3.6 -0.3 51 4.0 WSW 19 22 10 12 - - 0.0
03/10:30pm 9.1 3.6 0.4 54 3.7 WSW 19 22 10 12 - - 0.0
03/10:20pm 9.0 3.5 0.5 55 3.6 WSW 19 22 10 12 - - 0.0
03/10:10pm 9.0 3.3 0.5 55 3.6 WSW 20 22 11 12 - - 0.0
03/10:00pm 8.9 3.1 0.0 53 3.8 WSW 20 26 11 14 - - 0.0
03/09:50pm 8.9 3.4 0.3 55 3.7 W 19 22 10 12 - - 0.0
03/09:40pm 8.9 3.4 0.5 55 3.6 W 19 24 10 13 - - 0.0
03/09:30pm 8.9 3.2 0.5 55 3.6 W 20 24 11 13 - - 0.0
03/09:20pm 8.9 3.4 0.4 55 3.6 W 19 22 10 12 - - 0.0
03/09:10pm 8.9 3.1 -0.1 53 3.8 W 20 24 11 13 - - 0.0
03/09:00pm 8.9 3.2 -0.4 52 3.9 W 19 20 10 11 - - 0.0
03/08:50pm 8.9 3.2 -0.7 51 4.0 W 19 20 10 11 - - 0.0
03/08:40pm 8.9 3.2 -0.7 51 4.0 W 19 20 10 11 - - 0.0
03/08:30pm 8.7 3.5 0.1 55 3.6 WSW 17 19 9 10 - - 0.0
03/08:20pm 8.5 3.7 0.4 57 3.4 WSW 15 19 8 10 - - 0.0
03/08:10pm 7.7 4.5 0.7 61 3.0 W 7 11 4 6 - - 0.0
03/08:00pm 8.1 4.9 0.7 59 3.2 WNW 7 9 4 5 - - 0.0
03/07:50pm 8.4 5.4 0.6 58 3.3 W 6 7 3 4 - - 0.0
03/07:40pm 8.6 5.0 0.5 57 3.4 WSW 9 11 5 6 - - 0.0
03/07:30pm 8.5 4.9 0.3 56 3.5 WSW 9 9 5 5 - - 0.0
03/07:20pm 8.5 4.9 0.7 58 3.3 WSW 9 9 5 5 - - 0.0
03/07:10pm 8.9 5.3 0.4 55 3.6 W 9 11 5 6 - - 0.0
03/07:00pm 9.0 5.4 0.3 54 3.7 W 9 11 5 6 - - 0.0
03/06:50pm 9.0 5.3 0.2 54 3.7 W 9 11 5 6 - - 0.0
03/06:40pm 9.2 5.4 -0.5 50 4.1 W 9 13 5 7 - - 0.0
03/06:30pm 9.4 5.6 -1.1 48 4.3 WNW 9 11 5 6 - - 0.0
03/06:20pm 9.5 5.4 -0.3 50 4.1 WNW 11 13 6 7 - - 0.0
03/06:10pm 9.5 5.9 0.3 52 3.9 WNW 9 11 5 6 - - 0.0
03/06:00pm 9.6 6.0 0.3 52 4.0 WNW 9 13 5 7 - - 0.0
03/05:50pm 9.7 5.7 0.4 52 4.0 WNW 11 13 6 7 - - 0.0
03/05:40pm 10.0 6.0 0.2 50 4.2 WNW 11 13 6 7 - - 0.0
03/05:30pm 10.2 6.6 0.5 51 4.2 WNW 9 11 5 6 - - 0.0
03/05:20pm 10.4 6.4 0.4 50 4.3 WNW 11 13 6 7 - - 0.0
03/05:10pm 10.9 6.9 0.4 48 4.6 WNW 11 13 6 7 - - 0.0
03/05:00pm 11.2 7.6 0.7 48 4.6 WNW 9 11 5 6 - - 0.0
03/04:50pm 11.9 7.9 0.2 44 5.1 WNW 11 15 6 8 - - 0.0
03/04:40pm 12.4 8.8 0.9 45 5.1 NW 9 11 5 6 - - 0.0
03/04:30pm 12.8 9.6 3.0 51 4.6 WNW 9 13 5 7 - - 0.0
03/04:20pm 13.1 9.4 2.3 48 5.0 WNW 11 13 6 7 - - 0.0
03/04:10pm 13.2 9.8 2.0 46 5.1 WNW 9 13 5 7 - - 0.0
03/04:00pm 13.2 9.8 2.0 46 5.1 WNW 9 11 5 6 - - 0.0
03/03:50pm 13.7 10.0 2.3 46 5.3 W 11 15 6 8 - - 0.0
03/03:40pm 14.2 10.5 2.3 44 5.5 WNW 11 15 6 8 - - 0.0
03/03:30pm 14.0 10.3 2.3 45 5.4 W 11 15 6 8 - - 0.0
03/03:20pm 14.6 10.5 2.1 43 5.8 W 13 15 7 8 - - 0.0
03/03:10pm 14.3 10.6 2.4 44 5.6 WNW 11 13 6 7 - - 0.0
03/03:00pm 14.7 11.0 2.5 43 5.7 WNW 11 15 6 8 - - 0.0
03/02:50pm 14.1 10.7 1.9 43 5.6 W 9 13 5 7 - - 0.0
03/02:40pm 14.5 10.9 3.0 46 5.4 W 11 15 6 8 - - 0.0
03/02:30pm 14.8 10.6 1.8 41 6.0 WNW 13 15 7 8 - - 0.0
03/02:20pm 14.3 10.5 1.9 43 5.7 W 11 13 6 7 - - 0.0
03/02:10pm 14.2 10.0 1.9 43 5.7 W 13 15 7 8 - - 0.0
03/02:00pm 14.7 11.0 2.3 43 5.8 W 11 13 6 7 - - 0.0
03/01:50pm 14.2 10.5 2.2 44 5.6 W 11 15 6 8 - - 0.0
03/01:40pm 14.9 10.8 2.5 43 5.8 W 13 17 7 9 - - 0.0
03/01:30pm 14.6 10.7 3.2 46 5.4 W 13 17 7 9 - - 0.0
03/01:20pm 15.5 11.8 2.3 41 6.2 W 11 15 6 8 - - 0.0
03/01:10pm 15.1 11.4 2.2 41 6.0 W 11 13 6 7 - - 0.0
03/01:00pm 14.7 11.1 2.9 45 5.6 W 11 17 6 9 - - 0.0
03/12:50pm 14.7 10.1 1.3 40 6.1 W 15 17 8 9 - - 0.0
03/12:40pm 14.3 9.3 1.3 41 5.9 WNW 17 22 9 12 - - 0.0
03/12:30pm 14.3 9.7 1.4 41 5.9 W 15 20 8 11 - - 0.0
03/12:20pm 14.9 10.3 1.6 40 6.1 W 15 20 8 11 - - 0.0
03/12:10pm 15.0 10.5 2.0 41 6.1 W 15 20 8 11 - - 0.0
03/12:00pm 15.3 11.1 1.6 39 6.3 WNW 13 17 7 9 - - 0.0
03/11:50am 15.1 11.0 2.1 41 6.1 W 13 17 7 9 - - 0.0
03/11:40am 14.4 9.9 2.2 43 5.7 W 15 19 8 10 - - 0.0
03/11:30am 15.1 10.9 1.4 39 6.3 W 13 17 7 9 - - 0.0
03/11:20am 14.5 9.6 1.7 42 5.9 W 17 20 9 11 - - 0.0
03/11:10am 14.2 9.7 2.2 44 5.6 W 15 17 8 9 - - 0.0
03/11:00am 14.9 10.6 1.2 39 6.3 W 13 17 7 9 - - 0.0
03/10:50am 14.7 10.1 1.4 40 6.1 W 15 19 8 10 - - 0.0
03/10:40am 14.8 11.2 2.8 44 5.7 WNW 11 15 6 8 - - 0.0
03/10:30am 14.6 10.8 1.8 42 5.9 WNW 11 15 6 8 - - 0.0
03/10:20am 14.9 11.7 3.0 44 5.7 WNW 9 11 5 6 - - 0.0
03/10:10am 14.4 11.2 3.0 46 5.4 NW 9 11 5 6 - - 0.0
03/10:00am 14.1 10.5 3.1 47 5.2 NW 11 13 6 7 - - 0.0
03/09:50am 13.9 10.3 2.8 47 5.2 NW 11 15 6 8 - - 0.0
03/09:40am 13.6 9.6 2.9 48 5.0 NW 13 15 7 8 - - 0.0
03/09:30am 13.5 10.3 2.8 48 5.0 NW 9 13 5 7 - - 0.0
03/09:20am 13.0 9.4 2.9 50 4.7 WNW 11 15 6 8 - - 0.0
03/09:10am 12.7 8.8 3.2 52 4.5 WNW 13 13 7 7 - - 0.0
03/09:00am 12.4 8.4 3.0 52 4.4 WNW 13 17 7 9 - - 0.0
03/08:50am 12.0 7.9 2.2 51 4.5 WNW 13 15 7 8 - - 0.0
03/08:40am 11.4 7.3 2.4 54 4.1 WNW 13 15 7 8 - - 0.0
03/08:30am 11.9 8.0 3.2 55 4.1 WNW 13 15 7 8 - - 0.0
03/08:20am 12.2 8.2 2.6 52 4.4 WNW 13 19 7 10 - - 0.0
03/08:10am 12.2 7.7 2.3 51 4.5 W 15 20 8 11 - - 0.0
03/08:00am 12.1 7.6 2.0 50 4.6 W 15 17 8 9 - - 0.0
03/07:50am 11.8 7.6 1.6 49 4.6 W 13 17 7 9 - - 0.0
03/07:40am 11.5 7.3 1.6 50 4.4 W 13 17 7 9 - - 0.0
03/07:30am 11.1 7.2 1.0 50 4.5 W 11 13 6 7 - - 0.0
03/07:20am 10.1 6.8 0.3 50 4.2 W 7 9 4 5 - - 0.0
03/07:10am 9.4 6.1 -0.2 51 4.1 W 7 9 4 5 - - 0.0
03/07:00am 8.9 5.6 -0.1 53 3.8 W 7 7 4 4 - - 0.0
03/06:50am 8.1 4.4 0.1 57 3.4 W 9 11 5 6 - - 0.0
03/06:40am 7.6 4.4 0.6 61 3.0 WSW 7 11 4 6 - - 0.0
03/06:30am 7.8 4.6 0.8 61 3.0 WSW 7 9 4 5 - - 0.0
03/06:20am 8.3 5.1 0.7 59 3.2 W 7 9 4 5 - - 0.0
03/06:10am 8.4 5.4 0.7 58 3.3 SW 6 7 3 4 - - 0.0
03/06:00am 8.3 5.0 0.1 56 3.4 WSW 7 7 4 4 - - 0.0
03/05:50am 8.1 4.9 0.5 58 3.2 WSW 7 9 4 5 - - 0.0
03/05:40am 8.9 6.6 0.5 55 3.6 N 2 4 1 2 - - 0.0
03/05:30am 9.4 6.3 0.1 52 4.0 N 6 7 3 4 - - 0.0
03/05:20am 9.6 6.3 0.3 52 4.0 SW 7 9 4 5 - - 0.0
03/05:10am 9.3 6.2 0.3 53 3.8 SW 6 7 3 4 - - 0.0
03/05:00am 9.2 5.5 -0.2 52 4.0 SW 9 9 5 5 - - 0.0
03/04:50am 8.9 5.6 0.1 54 3.7 WSW 7 7 4 4 - - 0.0
03/04:40am 9.0 5.7 0.3 54 3.7 WSW 7 11 4 6 - - 0.0
03/04:30am 9.1 5.9 0.8 56 3.6 W 7 9 4 5 - - 0.0
03/04:20am 9.4 5.8 0.7 54 3.8 W 9 9 5 5 - - 0.0
03/04:10am 9.2 5.6 0.8 55 3.6 W 9 11 5 6 - - 0.0
03/04:00am 9.1 5.8 0.3 54 3.7 W 7 11 4 6 - - 0.0
03/03:50am 8.8 5.5 0.0 54 3.7 W 7 7 4 4 - - 0.0
03/03:40am 8.8 5.7 -0.1 53 3.7 W 6 6 3 3 - - 0.0
03/03:30am 8.7 5.5 -0.4 53 3.8 WSW 6 7 3 4 - - 0.0
03/03:20am 8.8 6.0 -0.3 53 3.8 W 4 6 2 3 - - 0.0
03/03:10am 9.0 6.2 -0.5 51 4.0 W 4 4 2 2 - - 0.0
03/03:00am 9.0 6.2 -0.5 51 4.0 WSW 4 4 2 2 - - 0.0
03/02:50am 8.9 6.1 -0.6 51 4.0 W 4 4 2 2 - - 0.0
03/02:40am 8.8 6.0 -0.7 51 3.9 W 4 6 2 3 - - 0.0
03/02:30am 8.8 6.0 -0.5 52 3.9 W 4 6 2 3 - - 0.0
03/02:20am 8.8 6.0 -0.7 51 3.9 W 4 6 2 3 - - 0.0
03/02:10am 9.0 5.8 -0.8 50 4.1 WSW 6 7 3 4 - - 0.0
03/02:00am 9.5 6.3 -0.3 50 4.1 WSW 6 6 3 3 - - 0.0
03/01:50am 9.5 6.4 0.2 52 4.0 WSW 6 7 3 4 - - 0.0
03/01:40am 9.6 6.3 0.4 52 3.9 SW 7 9 4 5 - - 0.0
03/01:30am 9.3 6.0 0.3 53 3.8 SW 7 7 4 4 - - 0.0
03/01:20am 8.9 5.9 0.7 56 3.5 WSW 6 7 3 4 - - 0.0
03/01:10am 9.1 6.1 0.8 56 3.6 WSW 6 7 3 4 - - 0.0
03/01:00am 9.2 6.0 0.8 55 3.6 WSW 7 7 4 4 - - 0.0
03/12:50am 8.9 5.7 1.0 57 3.4 SW 7 9 4 5 - - 0.0
03/12:40am 8.4 5.6 3.1 69 2.4 SW 7 9 4 5 - - 0.0
03/12:30am 8.1 4.9 3.3 72 2.2 SW 9 11 5 6 - - 0.0
03/12:20am 8.1 4.9 3.2 71 2.2 SW 9 9 5 5 - - 0.0
03/12:10am 8.2 5.3 2.7 68 2.5 WSW 7 9 4 5 - - 0.0
03/12:00am 8.3 5.6 2.5 67 2.6 W 6 7 3 4 - - 0.0
 
Date/Time
EST
Temp
°C
App
Temp
°C
Dew
Point
°C
Rel
Hum
%
Delta-T
°C
Wind Press
QNH
hPa
Press
MSL
hPa
Rain since
9am
mm
Dir  Spd
km/h
Gust
km/h
Spd
kts
Gust
kts
02/11:50pm 8.3 5.3 2.2 65 2.7 SW 7 7 4 4 - - 0.0
02/11:40pm 8.1 5.3 2.0 65 2.7 WSW 6 7 3 4 - - 0.0
02/11:30pm 8.3 5.6 2.6 67 2.5 WSW 6 6 3 3 - - 0.0
02/11:20pm 8.3 5.6 2.6 67 2.5 WSW 6 6 3 3 - - 0.0
02/11:10pm 8.6 5.9 2.7 66 2.6 WSW 6 6 3 3 - - 0.0
02/11:00pm 8.9 6.3 3.2 67 2.6 WSW 6 7 3 4 - - 0.0
02/10:50pm 8.9 6.1 3.3 68 2.6 SW 7 7 4 4 - - 0.0
02/10:40pm 8.9 6.4 3.7 70 2.4 SW 6 7 3 4 - - 0.0
02/10:30pm 8.7 6.0 3.9 72 2.2 SW 7 7 4 4 - - 0.0
02/10:20pm 8.9 6.4 4.0 71 2.3 WSW 6 6 3 3 - - 0.0
02/10:10pm 9.2 7.0 3.6 68 2.6 SW 4 6 2 3 - - 0.0
02/10:00pm 8.9 6.7 3.6 69 2.4 WSW 4 4 2 2 - - 0.0
02/09:50pm 8.8 7.5 3.9 71 2.3 CALM 0 2 0 1 - - 0.0
02/09:40pm 9.0 7.6 3.8 70 2.4 CALM 0 2 0 1 - - 0.0
02/09:30pm 9.1 7.4 3.8 69 2.4 S 2 6 1 3 - - 0.0
02/09:20pm 9.0 7.6 3.8 70 2.4 CALM 0 2 0 1 - - 0.0
02/09:10pm 8.9 7.6 3.9 71 2.3 CALM 0 0 0 0 - - 0.0
02/09:00pm 8.7 7.4 3.9 72 2.2 CALM 0 2 0 1 - - 0.0
02/08:50pm 8.4 6.7 4.2 75 1.9 S 2 4 1 2 - - 0.0
02/08:40pm 8.2 6.5 4.2 76 1.8 S 2 4 1 2 - - 0.0
02/08:30pm 8.2 6.2 4.2 76 1.8 SSE 4 4 2 2 - - 0.0
02/08:20pm 8.2 6.6 4.3 76 1.8 S 2 4 1 2 - - 0.0
02/08:10pm 8.5 6.5 4.3 75 2.0 SSE 4 4 2 2 - - 0.0
02/08:00pm 8.8 7.2 4.3 73 2.1 S 2 4 1 2 - - 0.0
02/07:50pm 8.9 7.3 4.3 73 2.1 S 2 4 1 2 - - 0.0
02/07:40pm 8.9 7.3 4.4 73 2.1 SSE 2 4 1 2 - - 0.0
02/07:30pm 9.0 7.4 4.4 73 2.2 SSE 2 4 1 2 - - 0.0
02/07:20pm 9.1 7.4 4.2 71 2.3 SSE 2 4 1 2 - - 0.0
02/07:10pm 9.0 7.7 4.2 72 2.2 CALM 0 2 0 1 - - 0.0
02/07:00pm 9.2 7.6 4.3 71 2.3 SSE 2 4 1 2 - - 0.0
02/06:50pm 9.3 7.3 4.4 71 2.3 SSE 4 4 2 2 - - 0.0
02/06:40pm 9.4 7.3 4.1 69 2.5 SSE 4 4 2 2 - - 0.0
02/06:30pm 9.3 7.6 4.2 70 2.4 SSE 2 2 1 1 - - 0.0
02/06:20pm 9.5 7.8 4.2 69 2.5 SE 2 4 1 2 - - 0.0
02/06:10pm 9.6 7.6 4.2 69 2.5 SE 4 4 2 2 - - 0.0
02/06:00pm 9.7 7.7 4.2 68 2.6 SSE 4 6 2 3 - - 0.0
02/05:50pm 9.9 7.5 4.3 68 2.6 SE 6 6 3 3 - - 0.0
02/05:40pm 9.9 7.5 4.2 67 2.7 SE 6 7 3 4 - - 0.0
02/05:30pm 10.1 7.7 4.5 68 2.6 SE 6 6 3 3 - - 0.0
02/05:20pm 10.5 8.1 4.4 66 2.9 SE 6 7 3 4 - - 0.0
02/05:10pm 11.1 8.6 4.5 64 3.1 SE 7 9 4 5 - - 0.0
02/05:00pm 11.7 8.7 4.3 60 3.5 ESE 9 9 5 5 - - 0.0
02/04:50pm 12.1 9.5 4.4 59 3.7 ESE 7 9 4 5 - - 0.0
02/04:40pm 12.6 10.0 4.3 57 4.0 ESE 7 9 4 5 - - 0.0
02/04:30pm 13.0 10.4 4.4 56 4.1 ESE 7 9 4 5 - - 0.0
02/04:20pm 13.6 11.3 4.7 55 4.3 ESE 6 7 3 4 - - 0.0
02/04:10pm 14.1 11.6 4.7 53 4.6 ESE 7 7 4 4 - - 0.0
02/04:00pm 14.8 12.3 3.7 47 5.3 ESE 6 7 3 4 - - 0.0
02/03:50pm 14.8 12.1 2.9 44 5.6 ESE 6 7 3 4 - - 0.0
02/03:40pm 14.7 11.9 3.4 46 5.4 ESE 7 9 4 5 - - 0.0
02/03:30pm 15.0 12.2 2.9 44 5.7 ESE 7 9 4 5 - - 0.0
02/03:20pm 15.4 12.8 4.1 47 5.5 ESE 7 7 4 4 - - 0.0
02/03:10pm 15.8 13.0 3.3 43 6.0 ESE 7 7 4 4 - - 0.0
02/03:00pm 16.2 13.7 4.0 44 6.0 ESE 6 7 3 4 - - 0.0
02/02:50pm 16.2 13.6 3.3 42 6.2 E 6 6 3 3 - - 0.0
02/02:40pm 16.3 13.7 3.1 41 6.4 E 6 7 3 4 - - 0.0
02/02:30pm 16.5 14.4 4.1 43 6.1 SE 4 7 2 4 - - 0.0
02/02:20pm 16.5 14.3 3.6 42 6.3 E 4 7 2 4 - - 0.0
02/02:10pm 16.9 14.2 2.8 39 6.8 NNE 6 7 3 4 - - 0.0
02/02:00pm 16.8 14.1 2.7 39 6.8 NE 6 7 3 4 - - 0.0
02/01:50pm 16.5 14.0 3.8 42 6.2 NE 6 7 3 4 - - 0.0
02/01:40pm 16.4 13.9 3.7 42 6.2 N 6 9 3 5 - - 0.0
02/01:30pm 16.6 14.2 4.2 43 6.1 NNE 6 7 3 4 - - 0.0
02/01:20pm 16.3 13.8 3.5 42 6.2 NNE 6 9 3 5 - - 0.0
02/01:10pm 16.2 13.2 1.9 38 6.7 N 7 9 4 5 - - 0.0
02/01:00pm 16.0 13.4 4.1 45 5.8 NNE 7 7 4 4 - - 0.0
02/12:50pm 16.3 13.6 2.5 39 6.6 NNE 6 9 3 5 - - 0.0
02/12:40pm 15.9 13.2 2.8 41 6.2 NNE 6 9 3 5 - - 0.0
02/12:30pm 15.6 13.4 3.2 43 5.9 NE 4 7 2 4 - - 0.0
02/12:20pm 15.4 12.9 3.5 45 5.7 NNE 6 7 3 4 - - 0.0
02/12:10pm 15.0 12.6 4.3 48 5.2 N 6 11 3 6 - - 0.0
02/12:00pm 14.7 11.9 2.9 45 5.6 N 7 9 4 5 - - 0.0
02/11:50am 14.8 12.3 3.7 47 5.3 NE 6 9 3 5 - - 0.0
02/11:40am 14.7 11.9 3.2 46 5.5 N 7 9 4 5 - - 0.0
02/11:30am 14.7 12.1 3.1 45 5.5 NNE 6 9 3 5 - - 0.0
02/11:20am 14.6 12.0 3.2 46 5.4 NE 6 7 3 4 - - 0.0
02/11:10am 14.2 11.6 3.3 48 5.2 NNE 6 7 3 4 - - 0.0
02/11:00am 13.9 11.2 2.4 45 5.4 NNE 6 9 3 5 - - 0.0
02/10:50am 13.6 10.9 2.7 47 5.1 NNE 6 7 3 4 - - 0.0
02/10:40am 13.5 10.7 2.9 48 5.0 N 7 9 4 5 - - 0.0
02/10:30am 13.6 10.9 2.8 48 5.1 NNE 6 7 3 4 - - 0.0
02/10:20am 13.4 10.9 3.9 52 4.5 NNE 6 7 3 4 - - 0.0
02/10:10am 13.6 11.0 3.4 50 4.8 NNE 6 7 3 4 - - 0.0
02/10:00am 13.7 11.3 2.0 45 5.4 NE 4 6 2 3 - - 0.0
02/09:50am 13.4 10.9 1.6 44 5.4 NE 4 6 2 3 - - 0.0
02/09:40am 13.1 10.7 2.1 47 5.1 NNE 4 6 2 3 - - 0.0
02/09:30am 12.5 10.0 1.6 47 4.9 E 4 7 2 4 - - 0.0
02/09:20am 12.5 10.0 1.4 46 5.0 ESE 4 6 2 3 - - 0.0
02/09:10am 12.3 9.8 1.8 48 4.8 E 4 6 2 3 - - 0.0
02/09:00am 12.0 8.9 0.4 45 5.1 E 6 7 3 4 - - 0.0
02/08:50am 12.0 9.3 0.2 44 5.2 E 4 6 2 3 - - 0.0
02/08:40am 11.4 8.3 0.0 45 4.9 ESE 6 6 3 3 - - 0.0
02/08:30am 11.4 8.3 -0.1 45 5.0 ESE 6 6 3 3 - - 0.0
02/08:20am 11.4 8.5 -0.9 42 5.2 ESE 4 4 2 2 - - 0.0
02/08:10am 11.3 8.3 -1.5 41 5.3 ESE 4 6 2 3 - - 0.0
02/08:00am 11.3 8.3 -1.7 40 5.4 E 4 4 2 2 - - 0.0
02/07:50am 10.6 7.9 -2.2 40 5.2 ESE 2 2 1 1 - - 0.0
02/07:40am 9.8 7.1 -2.1 43 4.8 SSE 2 2 1 1 - - 0.0
02/07:30am 9.0 6.3 -2.4 44 4.6 SSE 2 2 1 1 - - 0.0
02/07:20am 8.2 5.4 -3.5 43 4.5 S 2 2 1 1 - - 0.0
02/07:10am 7.6 5.0 -4.7 41 4.6 CALM 0 2 0 1 - - 0.0
02/07:00am 7.4 4.4 -5.5 39 4.7 S 2 2 1 1 - - 0.0
02/06:50am 7.0 3.9 -5.9 39 4.6 S 2 4 1 2 - - 0.0
02/06:40am 6.8 3.5 -8.3 33 5.1 S 2 4 1 2 - - 0.0
02/06:30am 6.6 3.2 -9.6 30 5.3 S 2 2 1 1 - - 0.0
02/06:20am 6.6 3.1 -10.8 27 5.5 SSE 2 4 1 2 - - 0.0
02/06:10am 6.8 3.3 -10.5 28 5.5 SSE 2 4 1 2 - - 0.0
02/06:00am 7.1 3.2 -10.5 27 5.6 SE 4 4 2 2 - - 0.0
02/05:50am 7.0 3.5 -10.8 27 5.7 SSE 2 4 1 2 - - 0.0
02/05:40am 7.3 3.5 -10.0 28 5.6 SSE 4 4 2 2 - - 0.0
02/05:30am 7.2 3.4 -9.6 29 5.5 SSE 4 4 2 2 - - 0.0
02/05:20am 7.0 3.2 -9.5 30 5.4 SSE 4 4 2 2 - - 0.0
02/05:10am 6.5 2.7 -9.9 30 5.3 SSE 4 6 2 3 - - 0.0
02/05:00am 6.3 2.8 -10.6 28 5.3 SE 2 4 1 2 - - 0.0
02/04:50am 6.3 2.5 -10.2 29 5.3 SSE 4 6 2 3 - - 0.0
02/04:40am 6.0 1.8 -9.5 32 5.0 SSE 6 7 3 4 - - 0.0
02/04:30am 6.0 1.9 -8.4 35 4.8 SSE 6 6 3 3 - - 0.0
02/04:20am 6.6 2.6 -7.2 36 4.8 SSE 6 7 3 4 - - 0.0
02/04:10am 7.3 3.2 -8.9 30 5.4 SSE 6 6 3 3 - - 0.0
02/04:00am 8.1 4.1 -12.1 22 6.3 SE 4 6 2 3 - - 0.0
02/03:50am 8.2 4.3 -11.7 23 6.3 SSE 4 4 2 2 - - 0.0
02/03:40am 8.2 4.7 -10.4 25 6.1 SW 2 2 1 1 - - 0.0
02/03:30am 8.5 5.1 -9.2 27 6.0 NNW 2 4 1 2 - - 0.0
02/03:20am 8.8 5.7 -11.3 23 6.5 CALM 0 0 0 0 - - 0.0
02/03:10am 8.7 5.6 -10.4 25 6.3 CALM 0 2 0 1 - - 0.0
02/03:00am 8.8 5.5 -8.1 29 5.9 SE 2 4 1 2 - - 0.0
02/02:50am 8.6 5.3 -8.6 28 5.9 SSE 2 4 1 2 - - 0.0
02/02:40am 8.7 5.5 -7.6 31 5.7 SSW 2 2 1 1 - - 0.0
02/02:30am 8.8 6.0 -7.1 32 5.7 CALM 0 2 0 1 - - 0.0
02/02:20am 8.9 5.7 -7.5 30 5.8 SSW 2 4 1 2 - - 0.0
02/02:10am 8.9 5.8 -6.4 33 5.6 WSW 2 4 1 2 - - 0.0
02/02:00am 8.5 5.4 -6.1 35 5.3 WSW 2 4 1 2 - - 0.0
02/01:50am 7.7 4.7 -5.6 38 4.8 WSW 2 4 1 2 - - 0.0
02/01:40am 7.5 5.2 -2.4 49 3.9 CALM 0 2 0 1 - - 0.0
02/01:30am 7.5 5.2 -2.3 50 3.9 CALM 0 2 0 1 - - 0.0
02/01:20am 7.6 4.9 -2.5 49 4.0 NNW 2 4 1 2 - - 0.0
02/01:10am 7.6 4.8 -3.7 44 4.3 S 2 4 1 2 - - 0.0
02/01:00am 7.7 5.0 -2.8 47 4.1 W 2 4 1 2 - - 0.0
02/12:50am 7.4 4.7 -2.3 50 3.8 NW 2 4 1 2 - - 0.0
02/12:40am 7.2 4.5 -2.4 50 3.8 S 2 4 1 2 - - 0.0
02/12:30am 7.2 4.4 -0.4 58 3.1 S 4 6 2 3 - - 0.0
02/12:20am 7.0 4.3 0.5 63 2.7 SW 4 6 2 3 - - 0.0
02/12:10am 6.9 4.5 -0.2 60 2.9 ESE 2 4 1 2 - - 0.0
02/12:00am 7.0 4.7 0.2 62 2.8 ENE 2 4 1 2 - - 0.0
 
Date/Time
EST
Temp
°C
App
Temp
°C
Dew
Point
°C
Rel
Hum
%
Delta-T
°C
Wind Press
QNH
hPa
Press
MSL
hPa
Rain since
9am
mm
Dir  Spd
km/h
Gust
km/h
Spd
kts
Gust
kts
01/11:50pm 7.1 4.8 0.7 64 2.7 ENE 2 4 1 2 - - 0.0
01/11:40pm 7.4 4.7 0.3 60 3.0 SSW 4 7 2 4 - - 0.0
01/11:30pm 7.7 4.9 -0.1 58 3.2 SW 4 7 2 4 - - 0.0
01/11:20pm 8.0 5.0 0.9 61 3.0 W 6 7 3 4 - - 0.0
01/11:10pm 7.9 5.0 1.2 62 2.9 WSW 6 7 3 4 - - 0.0
01/11:00pm 8.0 5.6 2.4 68 2.5 W 4 7 2 4 - - 0.0
01/10:50pm 8.6 5.3 2.4 65 2.8 WSW 9 11 5 6 - - 0.0
01/10:40pm 8.8 5.1 2.6 65 2.8 WSW 11 15 6 8 - - 0.0
01/10:30pm 8.6 4.6 2.8 67 2.6 WSW 13 15 7 8 - - 0.0
01/10:20pm 8.3 5.1 2.8 68 2.5 WSW 9 11 5 6 - - 0.0

Other formats

Comma delimited format used in spreadsheet applications
http://www.bom.gov.au/fwo/IDN60801/IDN60801.99118.axf

JavaScript Object Notation format (JSON) in row-major order
http://www.bom.gov.au/fwo/IDN60801/IDN60801.99118.json

Data quality

Most of these data are generated automatically and are frequently updated. Quality checks on data are not normally performed. It is possible for incorrect values to appear. Refer to information at About Latest Weather Observations and please check the disclaimer before using these data.